Strona główna
METAR-TAF:

METAR-TAF

Lotnisko :

Farnborough, Anglia

Szerokość geograficzna: 51-17N, Długość geograficzna: 000-46W, wysokość: 65 m

Aktualna obserwacja pogody

Raport powstał 28 minut temu, godzina 16:20 UTC
Wiatr 5 kt od północno-północny zachód
Temperatura 8°C
Wilgotność 87%
Ciśnienie 1014 hPa
Widzialność 10 km lub więcej
Przerywane chmury na wysokości 2500 ft

METAR: EGLF 251620Z 33005KT 9999 BKN025 08/06 Q1014

czas: 16:48 (16:48 UTC)

Prognoza

Raport powstał 2 godziny i 50 minut temu, godzina 13:58 UTC
Prognoza ważna od 25 godzina 15 UTC do 25 godzina 23 UTC
Wiatr 7 kt od północno-północny zachód
Widzialność 10 km lub więcej
Rozproszone chmury na wysokości 1600 ft
Przejściowo
od 25 godzina 15 UTC do 25 godzina 18 UTC
Widzialność: 8000 m
Przerywane chmury na wysokości 800 ft
słaby deszcz

TAF: EGLF 251358Z 2515/2523 33007KT 9999 SCT016 TEMPO 2515/2518 8000 -RA BKN008

Obserwacja i prognoza pogody dla ponad 4000 lotnisk (raport METAR i TAF).

Dostępne stacje oznaczono żółtymi i czerwonymi punktami na mapie.

Najedź kursorem aby zobaczyć nazwę stacji.

Kliknij aby zobaczyć obserwacje i prognozy pogody.

Aby zmienić mapę: kliknij na zielony przycisk z czarnym krzyżykiem, aby powiększyć; na zielony przycisk z myślnikiem, aby pomniejszyć; na zielone strzałki, aby przejść do map sąsiednich.


METAR-TAF: